Time;durP1;ratioP1;P1;durP2;ratioP2;P2;SDS_P1;SDS_P2;PMS_P1;PMS_P2;Temp;Humidity;BMP_temperature;BMP_pressure;BME280_temperature;BME280_humidity;BME280_pressure;Samples;Min_cycle;Max_cycle;Signal;HPM_P1;HPM_P2
2023/09/11 00:02:13;;;;;;;75.85;49.17;;;11.80;99.90;;;;;;5083325;28;20086;-87
2023/09/11 00:04:38;;;;;;;71.82;48.72;;;11.70;99.90;;;;;;5091407;28;20048;-85
2023/09/11 00:07:04;;;;;;;71.13;46.72;;;11.80;99.90;;;;;;5093950;28;20028;-87
2023/09/11 00:09:30;;;;;;;68.32;44.15;;;11.80;99.90;;;;;;5090993;28;20057;-86
2023/09/11 00:11:56;;;;;;;70.07;47.88;;;11.70;99.90;;;;;;5082876;28;20020;-85
2023/09/11 00:14:22;;;;;;;69.00;48.80;;;11.70;99.90;;;;;;5092398;28;20037;-86
2023/09/11 00:16:47;;;;;;;66.70;48.05;;;11.70;99.90;;;;;;5085760;28;20024;-85
2023/09/11 00:19:13;;;;;;;74.38;49.75;;;11.70;99.90;;;;;;5090933;28;20436;-87
2023/09/11 00:21:39;;;;;;;72.95;48.50;;;11.60;99.90;;;;;;5091134;28;20121;-87
2023/09/11 00:24:05;;;;;;;71.00;49.65;;;11.60;99.90;;;;;;5097296;28;20023;-88
2023/09/11 00:26:31;;;;;;;71.07;50.03;;;11.60;99.90;;;;;;5093900;28;20028;-86
2023/09/11 00:28:57;;;;;;;75.00;49.63;;;11.60;99.90;;;;;;5072796;28;20131;-85
2023/09/11 00:31:23;;;;;;;66.97;47.08;;;11.50;99.90;;;;;;5076343;28;20107;-85
2023/09/11 00:33:49;;;;;;;76.57;49.60;;;11.50;99.90;;;;;;5091078;28;20051;-86
2023/09/11 00:36:14;;;;;;;72.60;49.10;;;11.60;99.90;;;;;;5093239;28;20485;-86
2023/09/11 00:38:40;;;;;;;72.32;48.67;;;11.60;99.90;;;;;;5094411;28;20066;-84
2023/09/11 00:41:06;;;;;;;73.20;48.35;;;11.60;99.90;;;;;;5101911;28;20033;-84
2023/09/11 00:43:32;;;;;;;74.20;48.58;;;11.60;99.90;;;;;;5102648;28;20008;-84
2023/09/11 00:45:58;;;;;;;73.90;49.13;;;11.60;99.90;;;;;;5096146;28;20016;-84
2023/09/11 00:48:24;;;;;;;77.63;50.50;;;11.60;99.90;;;;;;5092217;28;20020;-84
2023/09/11 00:50:51;;;;;;;75.25;49.45;;;11.60;99.90;;;;;;5107954;28;20008;-84
2023/09/11 00:53:18;;;;;;;75.00;50.27;;;11.60;99.90;;;;;;5113286;28;20024;-84
2023/09/11 00:55:45;;;;;;;74.97;49.58;;;11.60;99.90;;;;;;5095075;28;20392;-83
2023/09/11 00:58:15;;;;;;;70.13;48.15;;;11.60;99.90;;;;;;5085275;28;20021;-84
2023/09/11 01:00:41;;;;;;;82.32;51.90;;;11.50;99.90;;;;;;5085771;28;20028;-85
2023/09/11 01:03:07;;;;;;;81.43;51.90;;;11.60;99.90;;;;;;5093738;28;20030;-84
2023/09/11 01:05:36;;;;;;;75.50;50.33;;;11.50;99.90;;;;;;5095954;28;20392;-83
2023/09/11 01:08:02;;;;;;;76.72;50.47;;;11.50;99.90;;;;;;5098791;28;20048;-83
2023/09/11 01:10:28;;;;;;;74.57;47.25;;;11.50;99.90;;;;;;5084640;28;20032;-83
2023/09/11 01:12:54;;;;;;;77.03;48.72;;;11.50;99.90;;;;;;5087210;28;20012;-84
2023/09/11 01:15:20;;;;;;;71.15;48.22;;;11.60;99.90;;;;;;5079931;28;20052;-84
2023/09/11 01:18:20;;;;;;;84.00;52.00;;;11.60;99.90;;;;;;5089933;28;20048;-84
2023/09/11 01:21:05;;;;;;;77.82;48.72;;;11.60;99.90;;;;;;5093134;28;20032;-83
2023/09/11 01:24:08;;;;;;;74.57;49.97;;;11.60;99.90;;;;;;5079617;28;20016;-83
2023/09/11 01:27:03;;;;;;;74.82;46.55;;;11.60;99.90;;;;;;5092984;28;20474;-83
2023/09/11 01:29:33;;;;;;;71.47;44.95;;;11.70;99.90;;;;;;5091924;28;20024;-83
2023/09/11 01:32:02;;;;;;;62.50;44.97;;;11.70;99.90;;;;;;5091547;28;20039;-82
2023/09/11 01:34:28;;;;;;;77.53;50.40;;;11.80;99.90;;;;;;5092909;28;20469;-83
2023/09/11 01:36:54;;;;;;;74.68;49.33;;;11.90;99.90;;;;;;5092550;28;20028;-81
2023/09/11 01:39:20;;;;;;;74.50;49.10;;;12.00;99.90;;;;;;5083163;28;20020;-83
2023/09/11 01:41:47;;;;;;;75.05;47.35;;;12.00;99.90;;;;;;5102508;28;20122;-82
2023/09/11 01:44:33;;;;;;;;;;;12.10;99.90;;;;;;5093266;28;20504;-84
2023/09/11 01:47:00;;;;;;;65.78;45.08;;;12.10;99.90;;;;;;5090334;28;20426;-83
2023/09/11 01:49:27;;;;;;;65.03;45.60;;;12.20;99.90;;;;;;5092586;28;20021;-83
2023/09/11 01:51:53;;;;;;;69.05;47.00;;;12.10;99.90;;;;;;5092217;28;20059;-84
2023/09/11 01:54:20;;;;;;;73.70;45.33;;;12.20;99.90;;;;;;5092479;28;20477;-84
2023/09/11 01:56:47;;;;;;;64.88;43.80;;;12.20;99.90;;;;;;5092543;28;20562;-82
2023/09/11 01:59:16;;;;;;;76.82;45.53;;;12.20;99.90;;;;;;5090903;28;20082;-83
2023/09/11 02:01:43;;;;;;;71.43;47.22;;;12.10;99.90;;;;;;5090861;28;20477;-84
2023/09/11 02:04:09;;;;;;;73.25;46.92;;;12.20;99.90;;;;;;5086899;28;20020;-85
2023/09/11 02:06:35;;;;;;;67.50;45.50;;;12.10;99.90;;;;;;5081979;28;20035;-83
2023/09/11 02:09:02;;;;;;;72.28;47.92;;;12.10;99.90;;;;;;5077539;28;20398;-83
2023/09/11 02:11:28;;;;;;;74.10;49.33;;;12.10;99.90;;;;;;5090958;28;20032;-83
2023/09/11 02:13:54;;;;;;;70.65;47.78;;;12.00;99.90;;;;;;5092105;28;20477;-83
2023/09/11 02:16:20;;;;;;;67.63;46.00;;;12.00;99.90;;;;;;5082038;28;20040;-82
2023/09/11 02:18:45;;;;;;;72.15;48.15;;;11.90;99.90;;;;;;5084192;28;20111;-83
2023/09/11 02:21:11;;;;;;;73.97;48.22;;;11.90;99.90;;;;;;5073460;28;20025;-84
2023/09/11 02:23:37;;;;;;;74.55;49.30;;;11.90;99.90;;;;;;5071954;28;20108;-83
2023/09/11 02:26:03;;;;;;;79.68;50.80;;;11.80;99.90;;;;;;5092083;28;20024;-82
2023/09/11 02:28:29;;;;;;;69.60;47.65;;;11.70;99.90;;;;;;5110349;28;20493;-82
2023/09/11 02:30:57;;;;;;;73.63;48.47;;;11.70;99.90;;;;;;5106437;28;20027;-83
2023/09/11 02:33:23;;;;;;;73.45;48.13;;;11.60;99.90;;;;;;5104371;28;20012;-83
2023/09/11 02:35:54;;;;;;;75.10;47.95;;;11.60;99.90;;;;;;5092045;28;20121;-83
2023/09/11 02:38:21;;;;;;;83.10;51.10;;;11.50;99.90;;;;;;5091528;28;20027;-84
2023/09/11 02:40:46;;;;;;;75.15;50.35;;;11.50;99.90;;;;;;5091582;28;20121;-83
2023/09/11 02:43:12;;;;;;;81.13;49.30;;;11.50;99.90;;;;;;5090637;28;20063;-84
2023/09/11 02:45:38;;;;;;;80.53;50.35;;;11.40;99.90;;;;;;5085222;28;20033;-84
2023/09/11 02:48:04;;;;;;;79.85;50.83;;;11.40;99.90;;;;;;5081900;28;20024;-84
2023/09/11 02:50:30;;;;;;;79.32;50.55;;;11.30;99.90;;;;;;5091604;28;20050;-84
2023/09/11 02:52:56;;;;;;;78.50;48.38;;;11.30;99.90;;;;;;5093622;28;20012;-84
2023/09/11 02:55:21;;;;;;;78.13;50.55;;;11.30;99.90;;;;;;5095420;28;20024;-84
2023/09/11 02:57:47;;;;;;;88.07;52.53;;;11.20;99.90;;;;;;5095655;28;20012;-82
2023/09/11 03:00:13;;;;;;;87.07;51.45;;;11.20;99.90;;;;;;5094571;28;20119;-83
2023/09/11 03:02:39;;;;;;;88.68;53.70;;;11.20;99.90;;;;;;5093844;28;20085;-83
2023/09/11 03:05:05;;;;;;;83.15;51.30;;;11.20;99.90;;;;;;5095138;28;20099;-82
2023/09/11 03:07:31;;;;;;;84.80;50.63;;;11.20;99.90;;;;;;5095151;28;20089;-84
2023/09/11 03:09:57;;;;;;;81.50;52.13;;;11.20;99.90;;;;;;5084158;28;20025;-82
2023/09/11 03:12:23;;;;;;;85.35;51.85;;;11.20;99.90;;;;;;5089512;28;20020;-83
2023/09/11 03:14:54;;;;;;;83.97;52.25;;;11.20;99.90;;;;;;5094885;28;20108;-83
2023/09/11 03:17:20;;;;;;;82.88;49.83;;;11.20;99.90;;;;;;5094863;28;20053;-82
2023/09/11 03:19:46;;;;;;;87.88;51.45;;;11.20;99.90;;;;;;5095012;28;20095;-82
2023/09/11 03:22:12;;;;;;;87.13;52.45;;;11.20;99.90;;;;;;5093398;28;20032;-83
2023/09/11 03:24:37;;;;;;;87.70;52.58;;;11.20;99.90;;;;;;5094869;28;20016;-82
2023/09/11 03:27:03;;;;;;;87.35;50.47;;;11.30;99.90;;;;;;5094543;28;20024;-82
2023/09/11 03:29:29;;;;;;;72.85;48.15;;;11.30;99.90;;;;;;5091587;28;20020;-83
2023/09/11 03:31:55;;;;;;;80.10;48.88;;;11.30;99.90;;;;;;5092913;28;20516;-83
2023/09/11 03:34:21;;;;;;;79.03;48.03;;;11.40;99.90;;;;;;5094390;28;20141;-83
2023/09/11 03:36:47;;;;;;;71.30;46.45;;;11.50;99.90;;;;;;5094280;28;20496;-83
2023/09/11 03:39:12;;;;;;;79.60;48.55;;;11.50;99.90;;;;;;5085714;28;20028;-83
2023/09/11 03:41:38;;;;;;;87.40;50.30;;;11.60;99.90;;;;;;5088696;28;20554;-83
2023/09/11 03:44:04;;;;;;;82.32;52.40;;;11.70;99.90;;;;;;5094340;28;20016;-82
2023/09/11 03:46:30;;;;;;;78.45;49.15;;;11.70;99.90;;;;;;5094594;28;20116;-81
2023/09/11 03:48:55;;;;;;;82.95;49.08;;;11.80;99.90;;;;;;5094625;28;20020;-82
2023/09/11 03:51:21;;;;;;;79.40;48.78;;;11.90;99.90;;;;;;5093701;28;20473;-81
2023/09/11 03:53:50;;;;;;;80.45;47.72;;;12.00;99.90;;;;;;5093045;28;20058;-81
2023/09/11 03:56:15;;;;;;;76.40;46.20;;;12.10;99.90;;;;;;5084134;28;20020;-82
2023/09/11 03:58:44;;;;;;;73.85;46.45;;;12.30;99.90;;;;;;5094662;28;20078;-82
2023/09/11 04:01:10;;;;;;;78.57;47.08;;;12.40;99.90;;;;;;5098292;28;20036;-82
2023/09/11 04:03:35;;;;;;;71.25;43.85;;;12.50;99.90;;;;;;5098897;28;20020;-82
2023/09/11 04:06:01;;;;;;;76.93;46.20;;;12.60;99.90;;;;;;5092744;28;20469;-83
2023/09/11 04:08:27;;;;;;;69.05;45.88;;;12.70;99.90;;;;;;5092468;28;20096;-80
2023/09/11 04:10:53;;;;;;;74.70;47.78;;;12.70;99.90;;;;;;5078426;28;20069;-82
2023/09/11 04:13:19;;;;;;;77.97;47.45;;;12.70;99.90;;;;;;5092511;28;20028;-82
2023/09/11 04:15:45;;;;;;;68.38;45.45;;;12.80;99.90;;;;;;5088355;28;20035;-82
2023/09/11 04:18:10;;;;;;;70.00;47.30;;;12.90;99.90;;;;;;5096083;28;20031;-82
2023/09/11 04:20:36;;;;;;;79.90;47.55;;;13.00;99.90;;;;;;5112412;28;20124;-83
2023/09/11 04:23:03;;;;;;;73.85;47.72;;;13.10;99.90;;;;;;5098664;28;20392;-81
2023/09/11 04:25:29;;;;;;;68.13;45.73;;;13.20;99.90;;;;;;5092483;28;20032;-83
2023/09/11 04:27:55;;;;;;;70.80;48.00;;;13.30;99.90;;;;;;5093438;28;20028;-83
2023/09/11 04:30:23;;;;;;;68.25;46.33;;;13.40;99.90;;;;;;5092748;28;20381;-83
2023/09/11 04:32:49;;;;;;;;;;;13.50;99.90;;;;;;5085826;28;20495;-83
2023/09/11 04:35:14;;;;;;;61.08;44.08;;;13.70;99.90;;;;;;5091703;28;20003;-83
2023/09/11 04:37:40;;;;;;;71.05;44.15;;;13.80;99.90;;;;;;5092503;28;20065;-82
2023/09/11 04:40:07;;;;;;;68.53;45.63;;;13.70;99.80;;;;;;5091359;28;20115;-83
2023/09/11 04:42:33;;;;;;;65.28;44.20;;;13.70;99.80;;;;;;5093402;28;20103;-82
2023/09/11 04:44:59;;;;;;;66.30;47.37;;;13.80;99.70;;;;;;5094286;28;20157;-82
2023/09/11 04:47:27;;;;;;;67.25;46.15;;;13.80;99.70;;;;;;5093620;28;20729;-83
2023/09/11 04:49:53;;;;;;;66.90;45.15;;;13.90;99.60;;;;;;5092438;28;20029;-82
2023/09/11 04:52:19;;;;;;;65.13;46.03;;;14.10;99.30;;;;;;5093023;28;20028;-83
2023/09/11 04:54:45;;;;;;;69.70;48.33;;;14.20;99.10;;;;;;5092294;28;20058;-85
2023/09/11 04:57:10;;;;;;;66.65;44.72;;;14.30;98.80;;;;;;5093652;28;20059;-84
2023/09/11 04:59:36;;;;;;;67.55;46.50;;;14.40;98.60;;;;;;5085930;28;20449;-82
2023/09/11 05:02:02;;;;;;;68.85;49.00;;;14.60;98.30;;;;;;5078349;28;20036;-85
2023/09/11 05:04:28;;;;;;;67.45;46.85;;;14.70;98.00;;;;;;5092609;28;20016;-83
2023/09/11 05:06:54;;;;;;;68.70;49.88;;;14.80;97.90;;;;;;5092768;28;20035;-82
2023/09/11 05:09:20;;;;;;;79.05;56.60;;;14.80;97.60;;;;;;5092563;28;20024;-84
2023/09/11 05:11:45;;;;;;;75.60;49.08;;;14.90;97.20;;;;;;5080905;28;20036;-87
2023/09/11 05:14:11;;;;;;;65.75;46.92;;;15.00;97.10;;;;;;5089990;28;20028;-84
2023/09/11 05:16:37;;;;;;;67.05;45.00;;;15.20;96.90;;;;;;5092929;28;20453;-83
2023/09/11 05:19:03;;;;;;;64.05;45.28;;;15.30;96.40;;;;;;5078664;28;20017;-83
2023/09/11 05:21:30;;;;;;;66.93;45.78;;;15.40;96.20;;;;;;5078340;28;20043;-84
2023/09/11 05:23:56;;;;;;;62.20;45.00;;;15.50;96.00;;;;;;5092559;28;20327;-81
2023/09/11 05:26:22;;;;;;;77.40;47.15;;;15.60;95.70;;;;;;5091514;28;20032;-81
2023/09/11 05:28:48;;;;;;;61.75;42.80;;;15.80;95.50;;;;;;5088158;28;20596;-83
2023/09/11 05:31:14;;;;;;;68.57;46.47;;;15.90;95.10;;;;;;5085212;28;20024;-80
2023/09/11 05:33:39;;;;;;;66.55;46.40;;;15.90;94.90;;;;;;5093208;28;20022;-81
2023/09/11 05:36:06;;;;;;;60.20;43.72;;;15.90;94.70;;;;;;5098674;28;20031;-80
2023/09/11 05:38:32;;;;;;;65.75;45.50;;;16.00;94.50;;;;;;5087969;28;20026;-80
2023/09/11 05:40:57;;;;;;;62.10;45.83;;;16.00;94.50;;;;;;5085203;28;20040;-80
2023/09/11 05:43:24;;;;;;;60.13;42.20;;;16.00;94.40;;;;;;5088171;28;20028;-80
2023/09/11 05:45:50;;;;;;;64.38;45.35;;;16.00;94.30;;;;;;5091842;28;20353;-80
2023/09/11 05:48:16;;;;;;;58.08;44.33;;;16.00;94.30;;;;;;5090743;28;20129;-81
2023/09/11 05:50:42;;;;;;;66.03;42.83;;;16.00;94.30;;;;;;5091435;28;20020;-80
2023/09/11 05:53:07;;;;;;;66.72;43.97;;;16.00;94.30;;;;;;5092432;28;20024;-81
2023/09/11 05:55:33;;;;;;;65.50;45.20;;;16.00;94.40;;;;;;5092266;28;20056;-81
2023/09/11 05:58:00;;;;;;;58.03;42.15;;;16.00;94.30;;;;;;5093456;28;20032;-82
2023/09/11 06:00:26;;;;;;;60.30;44.00;;;15.90;94.40;;;;;;5088990;28;20121;-80
2023/09/11 06:02:53;;;;;;;67.32;44.95;;;15.90;94.30;;;;;;5080610;28;20088;-82
2023/09/11 06:05:19;;;;;;;62.55;44.38;;;15.90;94.50;;;;;;5078823;28;20079;-81
2023/09/11 06:07:45;;;;;;;56.95;44.13;;;16.40;94.70;;;;;;5093418;28;20535;-80
2023/09/11 06:10:12;;;;;;;67.30;46.28;;;16.60;93.60;;;;;;5106089;28;20004;-82
2023/09/11 06:12:39;;;;;;;64.18;44.95;;;16.60;93.30;;;;;;5091803;28;20027;-81
2023/09/11 06:15:05;;;;;;;63.00;46.10;;;16.50;93.30;;;;;;5090305;28;20032;-82
2023/09/11 06:17:33;;;;;;;56.38;44.40;;;16.30;93.30;;;;;;5091693;28;20023;-82
2023/09/11 06:19:59;;;;;;;64.68;43.97;;;16.20;93.60;;;;;;5091917;28;20051;-83
2023/09/11 06:22:25;;;;;;;60.72;45.47;;;16.10;93.80;;;;;;5090942;28;20032;-84
2023/09/11 06:24:51;;;;;;;55.08;38.95;;;16.10;93.90;;;;;;5091914;28;20027;-82
2023/09/11 06:27:18;;;;;;;61.05;44.83;;;16.10;93.90;;;;;;5092797;28;20028;-82
2023/09/11 06:29:44;;;;;;;56.05;41.20;;;16.00;94.00;;;;;;5095565;28;20078;-82
2023/09/11 06:32:12;;;;;;;55.03;42.42;;;16.00;94.20;;;;;;5089032;28;20028;-82
2023/09/11 06:34:38;;;;;;;55.33;39.05;;;16.10;94.20;;;;;;5092309;28;20048;-81
2023/09/11 06:37:06;;;;;;;62.00;44.65;;;16.10;94.20;;;;;;5094596;28;20062;-80
2023/09/11 06:39:32;;;;;;;58.80;42.42;;;16.10;94.10;;;;;;5087201;28;20024;-81
2023/09/11 06:41:58;;;;;;;63.70;41.97;;;16.30;94.30;;;;;;5094512;28;20057;-81
2023/09/11 06:44:24;;;;;;;61.15;44.13;;;16.40;94.20;;;;;;5091365;28;20023;-81
2023/09/11 06:46:50;;;;;;;51.58;40.55;;;16.50;94.00;;;;;;5094511;28;20116;-82
2023/09/11 06:49:16;;;;;;;59.47;43.15;;;16.70;93.70;;;;;;5095423;28;20051;-81
2023/09/11 06:51:42;;;;;;;56.92;40.28;;;16.80;93.60;;;;;;5087772;28;20032;-83
2023/09/11 06:54:09;;;;;;;58.13;39.63;;;17.00;93.20;;;;;;5093226;28;20097;-81
2023/09/11 06:56:36;;;;;;;61.42;45.15;;;17.10;93.00;;;;;;5093293;28;20023;-82
2023/09/11 06:59:02;;;;;;;54.78;39.53;;;17.40;92.80;;;;;;5094876;28;20404;-82
2023/09/11 07:01:31;;;;;;;56.20;41.88;;;17.60;92.40;;;;;;5094960;28;20040;-82
2023/09/11 07:03:57;;;;;;;57.80;41.13;;;18.10;92.10;;;;;;5094748;28;20095;-80
2023/09/11 07:06:23;;;;;;;49.05;33.80;;;19.20;91.50;;;;;;5093724;28;20504;-80
2023/09/11 07:08:49;;;;;;;51.30;37.05;;;20.80;87.30;;;;;;5090312;28;20048;-80
2023/09/11 07:11:17;;;;;;;56.25;38.83;;;21.80;81.10;;;;;;5096872;28;20032;-80
2023/09/11 07:13:43;;;;;;;49.83;38.22;;;23.10;77.10;;;;;;5090500;28;20024;-81
2023/09/11 07:16:09;;;;;;;46.53;37.10;;;24.60;72.70;;;;;;5088545;28;20474;-80
2023/09/11 07:18:34;;;;;;;44.13;36.85;;;25.80;67.60;;;;;;5085459;28;20054;-82
2023/09/11 07:21:00;;;;;;;43.00;35.70;;;26.50;64.70;;;;;;5091140;28;20131;-79
2023/09/11 07:23:27;;;;;;;50.20;34.78;;;27.30;61.70;;;;;;5091558;28;20024;-81
2023/09/11 07:25:56;;;;;;;48.42;32.70;;;27.80;59.50;;;;;;5094114;28;20107;-79
2023/09/11 07:28:26;;;;;;;43.10;34.00;;;28.20;57.70;;;;;;5093844;28;20487;-84
2023/09/11 07:30:53;;;;;;;42.83;32.90;;;28.60;56.50;;;;;;5094111;28;20461;-81
2023/09/11 07:33:19;;;;;;;;;;;28.90;55.20;;;;;;5094560;28;20020;-80
2023/09/11 07:35:46;;;;;;;37.67;31.42;;;28.90;57.30;;;;;;5096550;28;19904;-82
2023/09/11 07:38:12;;;;;;;38.15;29.48;;;28.80;54.50;;;;;;5098009;28;20028;-82
2023/09/11 07:40:38;;;;;;;32.00;27.77;;;29.30;54.00;;;;;;5098145;28;20024;-81
2023/09/11 07:43:04;;;;;;;32.33;27.77;;;29.80;52.70;;;;;;5092403;28;20520;-81
2023/09/11 07:45:30;;;;;;;32.20;26.10;;;30.30;51.40;;;;;;5091289;28;20024;-79
2023/09/11 07:47:56;;;;;;;32.08;26.85;;;30.30;50.10;;;;;;5093651;28;20447;-80
2023/09/11 07:50:22;;;;;;;35.43;27.37;;;29.30;50.80;;;;;;5093850;28;20023;-82
2023/09/11 07:52:50;;;;;;;34.07;28.53;;;29.40;52.00;;;;;;5093827;28;20024;-82
2023/09/11 07:55:16;;;;;;;35.45;26.52;;;30.20;50.80;;;;;;5087980;28;20020;-81
2023/09/11 07:57:41;;;;;;;37.33;25.17;;;31.10;49.30;;;;;;5081775;28;20362;-81
2023/09/11 08:00:08;;;;;;;32.97;25.40;;;31.70;48.20;;;;;;5100965;28;20032;-81
2023/09/11 08:02:34;;;;;;;;;;;32.00;47.30;;;;;;5080258;28;20477;-80
2023/09/11 08:05:00;;;;;;;28.27;24.17;;;31.80;49.40;;;;;;5092215;28;19915;-80
2023/09/11 08:07:26;;;;;;;30.40;26.33;;;32.40;47.10;;;;;;5093480;28;20089;-82
2023/09/11 08:09:52;;;;;;;33.37;26.93;;;32.40;46.40;;;;;;5093712;28;20488;-82
2023/09/11 08:12:18;;;;;;;30.60;25.60;;;32.50;45.90;;;;;;5083920;28;20037;-82
2023/09/11 08:14:44;;;;;;;34.65;27.63;;;32.80;45.40;;;;;;5087968;28;20024;-81
2023/09/11 08:17:10;;;;;;;33.13;25.43;;;33.40;44.60;;;;;;5090216;28;20028;-81
2023/09/11 08:19:37;;;;;;;33.17;24.73;;;33.70;44.20;;;;;;5093064;28;20020;-79
2023/09/11 08:22:03;;;;;;;28.73;24.00;;;34.10;43.80;;;;;;5091760;28;20174;-82
2023/09/11 08:24:29;;;;;;;26.38;20.88;;;34.00;43.00;;;;;;5091669;28;20077;-79
2023/09/11 08:26:55;;;;;;;26.25;23.05;;;33.90;42.50;;;;;;5092955;28;20024;-80
2023/09/11 08:29:21;;;;;;;28.63;22.15;;;33.90;42.80;;;;;;5092885;28;20027;-81
2023/09/11 08:31:47;;;;;;;24.45;20.73;;;33.90;42.20;;;;;;5092737;28;20794;-81
2023/09/11 08:34:13;;;;;;;26.65;22.58;;;33.60;42.30;;;;;;5093051;28;20024;-82
2023/09/11 08:36:39;;;;;;;24.75;21.77;;;33.40;42.60;;;;;;5092631;28;20023;-81
2023/09/11 08:39:05;;;;;;;30.38;24.30;;;33.70;42.90;;;;;;5091492;28;20020;-82
2023/09/11 08:41:33;;;;;;;33.37;26.30;;;34.00;42.50;;;;;;5088490;28;20082;-81
2023/09/11 08:43:59;;;;;;;31.98;25.95;;;34.20;42.30;;;;;;5081781;28;20025;-79
2023/09/11 08:46:29;;;;;;;30.67;24.77;;;34.30;42.10;;;;;;5086374;28;20020;-80
2023/09/11 08:48:58;;;;;;;30.50;24.88;;;34.60;41.80;;;;;;5087581;28;20012;-81
2023/09/11 08:51:34;;;;;;;26.08;23.38;;;34.80;41.00;;;;;;5092778;28;20021;-81
2023/09/11 08:54:02;;;;;;;27.40;24.13;;;34.30;41.10;;;;;;5090295;28;20016;-81
2023/09/11 08:56:29;;;;;;;26.55;23.48;;;34.40;41.40;;;;;;5089092;28;20032;-82
2023/09/11 08:58:55;;;;;;;;;;;34.30;41.10;;;;;;5085153;28;21605;-81
2023/09/11 09:01:22;;;;;;;31.60;24.25;;;34.10;42.80;;;;;;5092162;28;19912;-81
2023/09/11 09:03:50;;;;;;;29.55;24.23;;;34.20;41.50;;;;;;5091925;28;20026;-80
2023/09/11 09:06:18;;;;;;;31.08;25.55;;;34.80;41.30;;;;;;5092401;28;20361;-81
2023/09/11 09:08:44;;;;;;;28.67;25.65;;;35.60;40.60;;;;;;5090346;28;20044;-83
2023/09/11 09:11:11;;;;;;;30.65;26.25;;;35.50;39.80;;;;;;5092009;28;20019;-85
2023/09/11 09:13:38;;;;;;;40.42;27.35;;;34.10;40.70;;;;;;5090758;28;20032;-80
2023/09/11 09:16:04;;;;;;;34.65;28.15;;;32.60;42.50;;;;;;5077760;28;20073;-81
2023/09/11 09:18:30;;;;;;;34.10;27.50;;;31.60;44.50;;;;;;5092277;28;20027;-82
2023/09/11 09:20:56;;;;;;;35.87;27.80;;;31.30;45.10;;;;;;5094706;28;20028;-81
2023/09/11 09:23:35;;;;;;;31.60;28.30;;;31.70;45.10;;;;;;5094088;28;20055;-84
2023/09/11 09:26:09;;;;;;;35.80;27.52;;;32.00;44.40;;;;;;5093004;28;20397;-83
2023/09/11 09:28:43;;;;;;;35.38;28.02;;;31.30;44.20;;;;;;5092124;28;20061;-83
2023/09/11 09:31:12;;;;;;;30.85;27.27;;;30.20;44.60;;;;;;5095072;28;20024;-81
2023/09/11 09:33:39;;;;;;;34.10;28.80;;;;;;;;;;5080335;28;20044;-80
2023/09/11 09:36:07;;;;;;;33.42;26.50;;;29.30;46.70;;;;;;5086875;28;20024;-82
2023/09/11 09:38:33;;;;;;;35.70;26.65;;;;;;;;;;5077842;28;20035;-82
2023/09/11 09:41:09;;;;;;;40.50;27.90;;;;;;;;;;5089744;28;20053;-80
2023/09/11 09:43:35;;;;;;;43.25;28.77;;;;;;;;;;5090722;28;20016;-80
2023/09/11 09:46:20;;;;;;;41.63;28.00;;;27.40;49.40;;;;;;5083180;28;20024;-79
2023/09/11 09:48:46;;;;;;;31.65;25.50;;;25.90;52.20;;;;;;5092583;28;20013;-83
2023/09/11 09:51:12;;;;;;;40.30;27.08;;;25.10;53.00;;;;;;5094516;28;20028;-82
2023/09/11 09:53:46;;;;;;;33.20;25.50;;;24.80;54.20;;;;;;5091334;28;20031;-86
2023/09/11 09:56:13;;;;;;;40.97;27.52;;;25.10;54.30;;;;;;5082897;28;20117;-85
2023/09/11 09:58:40;;;;;;;;;;;25.20;54.20;;;;;;5092037;28;20028;-81
2023/09/11 10:01:15;;;;;;;34.08;25.25;;;25.30;53.70;;;;;;5091818;28;20476;-80
2023/09/11 10:03:51;;;;;;;32.53;25.08;;;25.90;53.10;;;;;;5095476;28;20030;-82
2023/09/11 10:06:23;;;;;;;30.60;22.25;;;26.80;51.10;;;;;;5096008;28;20052;-81
2023/09/11 10:09:09;;;;;;;28.58;23.00;;;28.00;49.40;;;;;;5095502;28;20052;-81
2023/09/11 10:11:36;;;;;;;;;;;29.10;48.50;;;;;;5087915;28;20101;-86
2023/09/11 10:14:03;;;;;;;30.15;22.63;;;;;;;;;;5089581;28;19904;-85
2023/09/11 10:16:30;;;;;;;29.52;23.10;;;;;;;;;;5094469;28;20027;-83
2023/09/11 10:18:58;;;;;;;31.35;24.33;;;29.90;48.10;;;;;;5096720;28;20020;-82
2023/09/11 10:21:25;;;;;;;28.20;21.98;;;30.40;44.50;;;;;;5105564;28;20028;-84
2023/09/11 10:23:52;;;;;;;30.45;24.17;;;29.30;45.70;;;;;;5099764;28;20040;-83
2023/09/11 10:26:23;;;;;;;;;;;28.10;47.30;;;;;;5096946;28;20447;-82
2023/09/11 10:28:51;;;;;;;33.70;24.50;;;27.30;48.40;;;;;;5076116;28;19905;-81
2023/09/11 10:31:23;;;;;;;29.85;23.45;;;26.70;50.50;;;;;;5089230;28;20024;-82
2023/09/11 10:33:54;;;;;;;30.92;22.25;;;26.20;50.60;;;;;;5095508;28;20027;-82
2023/09/11 10:36:22;;;;;;;28.83;23.45;;;25.80;51.20;;;;;;5094465;28;20867;-83
2023/09/11 10:38:53;;;;;;;32.83;25.17;;;25.40;51.60;;;;;;5095343;28;20039;-83
2023/09/11 10:41:19;;;;;;;33.05;24.35;;;25.10;52.00;;;;;;5093831;28;20089;-82
2023/09/11 10:43:47;;;;;;;32.33;23.15;;;24.80;52.70;;;;;;5094614;28;20016;-82
2023/09/11 10:46:22;;;;;;;31.63;23.00;;;24.60;53.40;;;;;;5095293;28;20054;-81
2023/09/11 10:48:50;;;;;;;34.03;23.83;;;24.30;53.60;;;;;;5095258;28;20069;-83
2023/09/11 10:51:16;;;;;;;32.65;23.33;;;24.10;54.50;;;;;;5094934;28;20032;-85
2023/09/11 10:53:43;;;;;;;30.77;24.65;;;23.80;55.30;;;;;;5083920;28;20021;-82
2023/09/11 10:56:10;;;;;;;32.58;24.20;;;23.60;56.10;;;;;;5094836;28;20032;-82
2023/09/11 10:58:36;;;;;;;30.05;22.52;;;23.20;56.50;;;;;;5091110;28;20028;-82
2023/09/11 11:01:04;;;;;;;30.00;23.60;;;;;;;;;;5093498;28;20036;-82
2023/09/11 11:03:32;;;;;;;32.25;22.75;;;23.00;56.60;;;;;;5088042;28;20055;-81
2023/09/11 11:05:59;;;;;;;35.63;24.85;;;22.60;57.20;;;;;;5093035;28;20039;-82
2023/09/11 11:08:25;;;;;;;40.95;30.52;;;22.60;58.00;;;;;;5093663;28;20067;-82
2023/09/11 11:10:57;;;;;;;33.42;24.27;;;22.70;58.60;;;;;;5094717;28;20074;-85
2023/09/11 11:13:23;;;;;;;32.20;23.92;;;22.70;58.60;;;;;;5095795;28;20027;-84
2023/09/11 11:16:15;;;;;;;29.42;22.83;;;22.60;57.90;;;;;;5083048;28;20020;-81
2023/09/11 11:18:41;;;;;;;33.22;24.08;;;22.60;57.60;;;;;;5095156;28;20048;-84
2023/09/11 11:21:09;;;;;;;36.45;24.98;;;22.50;57.90;;;;;;5095012;28;20063;-83
2023/09/11 11:23:51;;;;;;;37.95;25.10;;;22.40;57.70;;;;;;5083663;28;20432;-88
2023/09/11 11:26:17;;;;;;;49.92;29.48;;;22.20;58.30;;;;;;5093372;28;20530;-87
2023/09/11 11:28:45;;;;;;;33.80;24.08;;;22.20;59.20;;;;;;5100897;28;20024;-86
2023/09/11 11:31:18;;;;;;;35.95;23.63;;;22.20;59.20;;;;;;5102210;28;20047;-87
2023/09/11 11:33:51;;;;;;;31.25;22.27;;;22.20;58.90;;;;;;5075187;28;20020;-87
2023/09/11 11:36:18;;;;;;;33.08;22.35;;;22.10;59.20;;;;;;5076017;28;20060;-87
2023/09/11 11:38:45;;;;;;;35.47;23.50;;;21.90;58.80;;;;;;5096167;28;20016;-86
2023/09/11 11:41:12;;;;;;;27.37;22.87;;;21.70;59.20;;;;;;5103756;28;20063;-83
2023/09/11 11:43:40;;;;;;;35.22;25.02;;;21.50;59.70;;;;;;5095870;28;20291;-84
2023/09/11 11:46:06;;;;;;;33.25;23.05;;;21.40;60.40;;;;;;5092267;28;20421;-80
2023/09/11 11:48:37;;;;;;;34.08;23.85;;;21.20;60.60;;;;;;5092513;28;20389;-82
2023/09/11 11:51:03;;;;;;;35.00;22.55;;;21.20;60.90;;;;;;5079635;28;20017;-83
2023/09/11 11:53:31;;;;;;;27.98;21.80;;;21.30;61.00;;;;;;5094037;28;20111;-83
2023/09/11 11:55:58;;;;;;;34.53;23.42;;;21.40;60.60;;;;;;5094756;28;20400;-83
2023/09/11 11:58:27;;;;;;;35.25;21.85;;;21.60;60.40;;;;;;5097787;28;20024;-82
2023/09/11 12:00:58;;;;;;;31.17;21.48;;;21.80;59.80;;;;;;5088583;28;20093;-82
2023/09/11 12:03:26;;;;;;;31.63;21.02;;;22.20;59.50;;;;;;5090143;28;20491;-81
2023/09/11 12:05:53;;;;;;;26.13;20.67;;;22.30;58.90;;;;;;5092785;28;20050;-82
2023/09/11 12:08:18;;;;;;;30.25;21.25;;;22.30;59.40;;;;;;5083816;28;20052;-82
2023/09/11 12:10:48;;;;;;;31.15;21.95;;;22.30;59.80;;;;;;5079587;28;20047;-79
2023/09/11 12:13:15;;;;;;;28.13;21.42;;;22.30;59.90;;;;;;5086051;28;20044;-81
2023/09/11 12:15:41;;;;;;;29.70;22.25;;;22.10;59.90;;;;;;5095365;28;20024;-80
2023/09/11 12:18:07;;;;;;;30.52;20.52;;;22.10;60.00;;;;;;5088505;28;20025;-80
2023/09/11 12:20:33;;;;;;;39.13;22.20;;;22.10;60.50;;;;;;5083203;28;20532;-81
2023/09/11 12:23:02;;;;;;;39.08;22.63;;;22.10;60.50;;;;;;5093072;28;20544;-81
2023/09/11 12:25:28;;;;;;;30.88;19.02;;;22.00;60.10;;;;;;5092748;28;20039;-81
2023/09/11 12:27:55;;;;;;;41.60;21.55;;;22.10;61.00;;;;;;5094058;28;20035;-82
2023/09/11 12:30:21;;;;;;;29.33;19.23;;;22.20;61.10;;;;;;5093690;28;20069;-82
2023/09/11 12:32:49;;;;;;;31.38;21.65;;;22.20;60.50;;;;;;5093362;28;20263;-81